createdAt,value
2023-04-21T00:00:10.450Z,8.90
2023-04-21T00:02:40.082Z,8.80
2023-04-21T00:05:11.107Z,8.90
2023-04-21T00:07:38.398Z,8.90
2023-04-21T00:10:07.680Z,8.80
2023-04-21T00:12:35.126Z,8.80
2023-04-21T00:15:03.300Z,8.70
2023-04-21T00:17:32.341Z,8.90
2023-04-21T00:19:59.863Z,9.00
2023-04-21T00:22:26.705Z,9.00
2023-04-21T00:24:53.604Z,8.90
2023-04-21T00:27:20.633Z,8.90
2023-04-21T00:29:50.587Z,8.90
2023-04-21T00:32:17.639Z,8.90
2023-04-21T00:34:44.764Z,8.80
2023-04-21T00:37:12.835Z,8.80
2023-04-21T00:39:40.054Z,8.70
2023-04-21T00:42:07.543Z,8.80
2023-04-21T00:44:34.421Z,8.80
2023-04-21T00:47:01.370Z,8.80
2023-04-21T00:49:28.885Z,8.80
2023-04-21T00:51:56.148Z,8.80
2023-04-21T00:54:26.140Z,8.80
2023-04-21T00:56:53.840Z,8.80
2023-04-21T00:59:21.679Z,8.80
2023-04-21T01:01:48.812Z,8.90
2023-04-21T01:04:15.792Z,8.80
2023-04-21T01:06:43.269Z,8.70
2023-04-21T01:09:12.289Z,8.70
2023-04-21T01:11:39.687Z,8.60
2023-04-21T01:14:07.383Z,8.60
2023-04-21T01:16:34.534Z,8.60
2023-04-21T01:19:02.240Z,8.50
2023-04-21T01:21:32.107Z,8.60
2023-04-21T01:23:59.674Z,8.60
2023-04-21T01:26:26.533Z,8.60
2023-04-21T01:28:57.489Z,8.50
2023-04-21T01:31:24.958Z,8.60
2023-04-21T01:33:52.055Z,8.50
2023-04-21T01:36:19.292Z,8.70
2023-04-21T01:38:46.203Z,8.70
2023-04-21T01:41:16.563Z,8.60
2023-04-21T01:43:43.735Z,8.50
2023-04-21T01:46:10.864Z,8.50
2023-04-21T01:48:38.205Z,8.50
2023-04-21T01:51:05.278Z,8.50
2023-04-21T01:53:32.379Z,8.40
2023-04-21T01:55:59.381Z,8.50
2023-04-21T01:58:29.413Z,8.50
2023-04-21T02:00:56.286Z,8.50
2023-04-21T02:03:23.701Z,8.40
2023-04-21T02:05:51.362Z,8.40
2023-04-21T02:08:18.220Z,8.50
2023-04-21T02:10:45.046Z,8.50
2023-04-21T02:13:12.053Z,8.50
2023-04-21T02:15:41.629Z,8.40
2023-04-21T02:18:08.644Z,8.40
2023-04-21T02:20:36.561Z,8.50
2023-04-21T02:23:03.572Z,8.50
2023-04-21T02:25:30.847Z,8.60
2023-04-21T02:27:57.659Z,8.50
2023-04-21T02:30:24.507Z,8.50
2023-04-21T02:32:51.406Z,8.60
2023-04-21T02:35:18.351Z,8.60
2023-04-21T02:37:45.222Z,8.60
2023-04-21T02:40:12.664Z,8.60
2023-04-21T02:42:39.545Z,8.50
2023-04-21T02:45:07.022Z,8.60
2023-04-21T02:47:34.077Z,8.50
2023-04-21T02:50:00.970Z,8.50
2023-04-21T02:52:28.068Z,8.50
2023-04-21T02:54:54.971Z,8.50
2023-04-21T02:57:21.825Z,8.60
2023-04-21T02:59:48.687Z,8.50
2023-04-21T03:02:15.650Z,8.60
2023-04-21T03:04:42.600Z,8.60
2023-04-21T03:07:13.885Z,8.60
2023-04-21T03:09:41.440Z,8.70
2023-04-21T03:12:08.476Z,8.70
2023-04-21T03:14:35.375Z,8.60
2023-04-21T03:17:02.251Z,8.60
2023-04-21T03:19:29.809Z,8.60
2023-04-21T03:21:56.676Z,8.60
2023-04-21T03:24:23.498Z,8.70
2023-04-21T03:26:50.864Z,8.60
2023-04-21T03:29:17.888Z,8.70
2023-04-21T03:31:45.038Z,8.70
2023-04-21T03:34:11.969Z,8.70
2023-04-21T03:36:38.822Z,8.60
2023-04-21T03:39:19.386Z,8.60
2023-04-21T03:41:47.271Z,8.70
2023-04-21T03:44:14.376Z,8.80
2023-04-21T03:46:41.438Z,8.70
2023-04-21T03:49:08.428Z,8.70
2023-04-21T03:51:35.473Z,8.80
2023-04-21T03:54:02.342Z,8.80
2023-04-21T03:56:29.167Z,8.70
2023-04-21T03:58:56.161Z,8.80
2023-04-21T04:01:23.164Z,8.80
2023-04-21T04:03:50.143Z,8.80
2023-04-21T04:06:17.101Z,8.90
2023-04-21T04:08:43.965Z,8.90
2023-04-21T04:11:11.018Z,8.90
2023-04-21T04:13:38.175Z,9.00
2023-04-21T04:16:05.538Z,9.10
2023-04-21T04:18:32.588Z,9.10
2023-04-21T04:20:59.463Z,9.10
2023-04-21T04:23:26.368Z,9.10
2023-04-21T04:25:53.184Z,9.20
2023-04-21T04:28:20.133Z,9.20
2023-04-21T04:30:47.143Z,9.30
2023-04-21T04:33:14.004Z,9.40
2023-04-21T04:35:41.118Z,9.50
2023-04-21T04:38:07.948Z,9.70
2023-04-21T04:40:34.882Z,9.90
2023-04-21T04:43:02.732Z,10.10
2023-04-21T04:45:33.070Z,10.30
2023-04-21T04:48:00.432Z,10.60
2023-04-21T04:50:27.435Z,10.90
2023-04-21T04:52:54.387Z,11.50
2023-04-21T04:55:22.184Z,11.80
2023-04-21T04:57:49.157Z,12.20
2023-04-21T05:00:16.134Z,12.80
2023-04-21T05:02:43.223Z,13.40
2023-04-21T05:05:10.292Z,14.10
2023-04-21T05:07:37.437Z,14.80
2023-04-21T05:10:04.736Z,15.60
2023-04-21T05:12:34.430Z,15.90
2023-04-21T05:15:01.423Z,16.10
2023-04-21T05:17:31.079Z,16.10
2023-04-21T05:19:58.239Z,15.90
2023-04-21T05:22:25.898Z,15.50
2023-04-21T05:24:53.533Z,15.70
2023-04-21T05:27:20.517Z,16.00
2023-04-21T05:29:47.473Z,16.20
2023-04-21T05:32:14.559Z,15.50
2023-04-21T05:34:41.506Z,15.30
2023-04-21T05:37:11.851Z,15.20
2023-04-21T05:39:38.781Z,14.80
2023-04-21T05:42:06.752Z,14.80
2023-04-21T05:44:33.656Z,15.10
2023-04-21T05:47:00.670Z,15.90
2023-04-21T05:49:27.703Z,16.90
2023-04-21T05:51:54.636Z,17.90
2023-04-21T05:54:21.864Z,18.60
2023-04-21T05:56:48.935Z,18.90
2023-04-21T05:59:16.325Z,18.80
2023-04-21T06:01:43.924Z,18.60
2023-04-21T06:04:11.149Z,18.70
2023-04-21T06:06:38.464Z,18.90
2023-04-21T06:09:05.819Z,19.00
2023-04-21T06:11:33.519Z,19.40
2023-04-21T06:14:01.831Z,19.60
2023-04-21T06:16:32.372Z,19.70
2023-04-21T06:18:59.544Z,19.80
2023-04-21T06:21:26.528Z,19.70
2023-04-21T06:23:53.444Z,20.20
2023-04-21T06:26:20.528Z,20.60
2023-04-21T06:28:47.449Z,20.70
2023-04-21T06:31:15.678Z,20.80
2023-04-21T06:33:42.827Z,20.10
2023-04-21T06:36:09.721Z,19.40
2023-04-21T06:38:36.655Z,19.30
2023-04-21T06:41:04.679Z,19.30
2023-04-21T06:43:31.599Z,19.40
2023-04-21T06:45:58.563Z,19.00
2023-04-21T06:48:26.417Z,18.80
2023-04-21T06:50:53.376Z,19.10
2023-04-21T06:53:21.729Z,18.70
2023-04-21T06:55:49.086Z,18.70
2023-04-21T06:58:16.008Z,18.70
2023-04-21T07:00:42.889Z,19.00
2023-04-21T07:03:09.996Z,19.20
2023-04-21T07:05:37.051Z,19.40
2023-04-21T07:08:04.042Z,19.50
2023-04-21T07:10:32.100Z,19.30
2023-04-21T07:12:59.049Z,19.40
2023-04-21T07:15:26.011Z,19.60
2023-04-21T07:17:53.007Z,19.70
2023-04-21T07:20:19.998Z,20.10
2023-04-21T07:22:46.986Z,20.00
2023-04-21T07:25:13.934Z,20.70
2023-04-21T07:27:41.087Z,21.00
2023-04-21T07:30:11.640Z,21.20
2023-04-21T07:32:39.070Z,21.10
2023-04-21T07:35:07.285Z,20.50
2023-04-21T07:37:34.375Z,20.40
2023-04-21T07:40:01.504Z,19.90
2023-04-21T07:42:28.574Z,18.50
2023-04-21T07:44:56.180Z,18.10
2023-04-21T07:47:23.565Z,17.60
2023-04-21T07:49:50.584Z,17.50
2023-04-21T07:52:17.693Z,17.40
2023-04-21T07:54:44.648Z,17.30
2023-04-21T07:57:11.646Z,17.50
2023-04-21T07:59:38.799Z,17.70
2023-04-21T08:02:05.918Z,17.60
2023-04-21T08:04:33.026Z,17.50
2023-04-21T08:07:00.540Z,17.50
2023-04-21T08:09:28.038Z,17.60
2023-04-21T08:11:55.320Z,18.00
2023-04-21T08:14:22.416Z,18.70
2023-04-21T08:16:49.784Z,19.40
2023-04-21T08:19:16.954Z,19.80
2023-04-21T08:21:43.937Z,19.20
2023-04-21T08:24:10.949Z,18.80
2023-04-21T08:26:37.959Z,18.90
2023-04-21T08:29:07.434Z,18.80
2023-04-21T08:31:34.713Z,18.60
2023-04-21T08:34:03.069Z,17.90
2023-04-21T08:36:30.739Z,17.70
2023-04-21T08:38:58.939Z,17.60
2023-04-21T08:41:27.302Z,17.50
2023-04-21T08:43:54.438Z,16.90
2023-04-21T08:46:22.869Z,16.90
2023-04-21T08:48:50.022Z,16.90
2023-04-21T08:51:28.321Z,17.00
2023-04-21T08:53:55.577Z,16.80
2023-04-21T08:56:27.152Z,16.30
2023-04-21T08:58:54.528Z,15.80
2023-04-21T09:01:21.690Z,15.60
2023-04-21T09:03:48.854Z,15.70
2023-04-21T09:06:16.671Z,15.70
2023-04-21T09:08:52.876Z,15.70
2023-04-21T09:11:19.816Z,15.60
2023-04-21T09:13:46.812Z,15.40
2023-04-21T09:16:20.249Z,15.30
2023-04-21T09:18:47.288Z,15.40
2023-04-21T09:21:16.149Z,15.70
2023-04-21T09:23:47.752Z,15.80
2023-04-21T09:26:16.271Z,15.70
2023-04-21T09:28:45.052Z,15.30
2023-04-21T09:31:24.864Z,14.90
2023-04-21T09:33:59.263Z,14.70
2023-04-21T09:36:29.638Z,14.60
2023-04-21T09:41:33.327Z,14.30
2023-04-21T09:44:01.949Z,14.40
2023-04-21T09:46:34.465Z,14.50
2023-04-21T09:49:02.281Z,14.30
2023-04-21T09:51:49.032Z,14.30
2023-04-21T09:56:54.144Z,14.40
2023-04-21T09:59:37.938Z,14.50
2023-04-21T10:02:09.557Z,14.00
2023-04-21T10:04:38.362Z,13.30
2023-04-21T10:07:07.029Z,13.30
2023-04-21T10:09:40.603Z,13.50
2023-04-21T10:12:09.679Z,13.50
2023-04-21T10:14:36.981Z,13.60
2023-04-21T10:17:05.921Z,13.80
2023-04-21T10:19:41.719Z,13.90
2023-04-21T10:22:09.768Z,13.60
2023-04-21T10:24:41.648Z,13.40
2023-04-21T10:27:12.970Z,13.40
2023-04-21T10:29:52.465Z,13.20
2023-04-21T10:33:05.503Z,12.90
2023-04-21T10:36:12.342Z,12.60
2023-04-21T10:38:43.779Z,12.60
2023-04-21T10:41:29.923Z,12.80
2023-04-21T10:44:16.110Z,12.80
2023-04-21T10:46:54.012Z,12.90
2023-04-21T10:49:29.030Z,13.40
2023-04-21T10:52:07.394Z,13.80
2023-04-21T10:55:05.088Z,14.10
2023-04-21T10:57:33.803Z,14.00
2023-04-21T11:00:01.076Z,13.80
2023-04-21T11:02:28.108Z,13.50
2023-04-21T11:04:56.471Z,13.60
2023-04-21T11:07:26.968Z,13.40
2023-04-21T11:10:12.179Z,13.50
2023-04-21T11:12:40.875Z,13.70
2023-04-21T11:15:13.211Z,13.70
2023-04-21T11:17:43.409Z,13.80
2023-04-21T11:20:10.714Z,13.80
2023-04-21T11:22:38.844Z,13.90
2023-04-21T11:25:06.370Z,13.30
2023-04-21T11:27:33.254Z,12.70
2023-04-21T11:30:03.956Z,12.70
2023-04-21T11:32:31.132Z,12.70
2023-04-21T11:34:58.178Z,12.90
2023-04-21T11:37:27.242Z,13.30
2023-04-21T11:39:58.976Z,13.70
2023-04-21T11:42:26.362Z,14.20
2023-04-21T11:44:56.583Z,14.10
2023-04-21T11:47:25.809Z,13.70
2023-04-21T11:49:54.848Z,13.90
2023-04-21T11:52:36.053Z,14.10
2023-04-21T11:55:15.721Z,14.60
2023-04-21T11:57:42.655Z,14.70
2023-04-21T12:00:12.295Z,15.10
2023-04-21T12:02:39.960Z,15.00
2023-04-21T12:05:14.440Z,15.20
2023-04-21T12:07:43.675Z,15.20
2023-04-21T12:10:12.870Z,15.30
2023-04-21T12:12:41.227Z,15.30
2023-04-21T12:15:12.925Z,15.60
2023-04-21T12:17:43.987Z,15.70
2023-04-21T12:20:12.047Z,15.70
2023-04-21T12:22:38.961Z,15.50
2023-04-21T12:25:06.221Z,15.50
2023-04-21T12:27:33.083Z,15.60
2023-04-21T12:30:00.396Z,15.50
2023-04-21T12:32:27.356Z,15.40
2023-04-21T12:34:54.236Z,15.50
2023-04-21T12:37:21.578Z,15.50
2023-04-21T12:39:48.410Z,15.40
2023-04-21T12:42:15.255Z,15.50
2023-04-21T12:44:42.108Z,15.70
2023-04-21T12:47:09.228Z,15.90
2023-04-21T12:49:36.180Z,15.80
2023-04-21T12:52:05.608Z,15.70
2023-04-21T12:54:32.551Z,15.40
2023-04-21T12:56:59.699Z,15.30
2023-04-21T12:59:26.755Z,15.20
2023-04-21T13:01:53.783Z,15.30
2023-04-21T13:04:21.753Z,15.40
2023-04-21T13:06:48.904Z,15.70
2023-04-21T13:09:17.077Z,15.80
2023-04-21T13:11:44.067Z,15.70
2023-04-21T13:14:11.135Z,15.60
2023-04-21T13:16:38.089Z,15.50
2023-04-21T13:19:05.148Z,15.60
2023-04-21T13:21:33.130Z,15.70
2023-04-21T13:24:00.051Z,15.50
2023-04-21T13:26:27.157Z,15.70
2023-04-21T13:28:54.069Z,15.60
2023-04-21T13:31:21.100Z,15.80
2023-04-21T13:33:48.055Z,15.50
2023-04-21T13:36:15.094Z,15.50
2023-04-21T13:38:42.751Z,15.40
2023-04-21T13:41:09.607Z,15.60
2023-04-21T13:43:36.639Z,15.70
2023-04-21T13:46:03.654Z,15.80
2023-04-21T13:48:30.563Z,15.50
2023-04-21T13:50:57.446Z,15.10
2023-04-21T13:53:24.387Z,15.40
2023-04-21T13:55:51.638Z,15.60
2023-04-21T13:58:18.713Z,15.50
2023-04-21T14:00:45.662Z,15.60
2023-04-21T14:03:14.139Z,15.60
2023-04-21T14:05:41.521Z,15.60
2023-04-21T14:08:08.748Z,15.60
2023-04-21T14:10:35.655Z,15.80
2023-04-21T14:13:04.979Z,15.90
2023-04-21T14:15:32.311Z,16.20
2023-04-21T14:18:00.580Z,16.20
2023-04-21T14:20:27.629Z,16.20
2023-04-21T14:22:54.629Z,16.10
2023-04-21T14:25:21.589Z,16.10
2023-04-21T14:27:48.771Z,15.80
2023-04-21T14:30:15.967Z,15.50
2023-04-21T14:32:45.521Z,15.50
2023-04-21T14:35:13.538Z,15.50
2023-04-21T14:37:41.241Z,15.50
2023-04-21T14:40:09.175Z,15.20
2023-04-21T14:42:36.302Z,15.10
2023-04-21T14:45:03.481Z,14.90
2023-04-21T14:47:31.031Z,14.70
2023-04-21T14:49:57.979Z,14.70
2023-04-21T14:52:25.842Z,14.80
2023-04-21T14:54:53.111Z,14.70
2023-04-21T14:57:21.821Z,14.50
2023-04-21T14:59:52.882Z,14.60
2023-04-21T15:02:21.481Z,14.70
2023-04-21T15:04:49.480Z,14.80
2023-04-21T15:07:19.882Z,14.60
2023-04-21T15:09:51.015Z,14.70
2023-04-21T15:12:18.019Z,14.60
2023-04-21T15:14:44.986Z,14.60
2023-04-21T15:17:11.960Z,14.70
2023-04-21T15:19:38.918Z,14.80
2023-04-21T15:22:05.955Z,14.60
2023-04-21T15:24:32.934Z,14.50
2023-04-21T15:27:00.168Z,14.40
2023-04-21T15:29:27.039Z,14.30
2023-04-21T15:31:53.883Z,14.30
2023-04-21T15:34:20.730Z,14.20
2023-04-21T15:36:47.633Z,14.20
2023-04-21T15:39:14.784Z,14.20
2023-04-21T15:41:41.843Z,14.10
2023-04-21T15:44:08.779Z,14.20
2023-04-21T15:46:35.759Z,14.30
2023-04-21T15:49:03.022Z,14.20
2023-04-21T15:51:29.883Z,14.10
2023-04-21T15:53:56.887Z,14.10
2023-04-21T15:56:23.749Z,14.00
2023-04-21T15:58:50.652Z,13.90
2023-04-21T16:01:17.794Z,13.70
2023-04-21T16:03:46.343Z,13.70
2023-04-21T16:06:13.494Z,13.70
2023-04-21T16:08:40.539Z,13.60
2023-04-21T16:11:07.568Z,13.60
2023-04-21T16:13:37.376Z,13.60
2023-04-21T16:16:04.648Z,13.70
2023-04-21T16:18:31.585Z,13.60
2023-04-21T16:20:58.643Z,13.60
2023-04-21T16:23:27.275Z,13.60
2023-04-21T16:25:54.883Z,13.60
2023-04-21T16:28:21.841Z,13.60
2023-04-21T16:30:50.161Z,13.60
2023-04-21T16:33:17.175Z,13.50
2023-04-21T16:35:44.545Z,13.50
2023-04-21T16:38:11.900Z,13.60
2023-04-21T16:40:38.995Z,13.60
2023-04-21T16:43:05.899Z,13.70
2023-04-21T16:45:32.989Z,13.50
2023-04-21T16:48:00.055Z,13.50
2023-04-21T16:50:27.228Z,13.50
2023-04-21T16:52:54.308Z,13.40
2023-04-21T16:55:21.452Z,13.30
2023-04-21T16:57:48.745Z,13.20
2023-04-21T17:00:16.683Z,13.30
2023-04-21T17:02:43.804Z,13.30
2023-04-21T17:05:12.264Z,13.30
2023-04-21T17:07:42.468Z,13.20
2023-04-21T17:10:09.822Z,13.20
2023-04-21T17:12:36.820Z,13.20
2023-04-21T17:15:05.173Z,13.20
2023-04-21T17:17:42.642Z,13.30
2023-04-21T17:20:11.775Z,13.20
2023-04-21T17:22:42.392Z,13.10
2023-04-21T17:25:10.049Z,13.10
2023-04-21T17:27:38.366Z,13.10
2023-04-21T17:30:07.453Z,13.00
2023-04-21T17:32:34.681Z,13.10
2023-04-21T17:35:01.959Z,13.00
2023-04-21T17:37:30.462Z,13.20
2023-04-21T17:39:59.743Z,13.30
2023-04-21T17:42:29.462Z,13.30
2023-04-21T17:44:56.301Z,13.50
2023-04-21T17:47:23.529Z,13.50
2023-04-21T17:49:53.635Z,13.10
2023-04-21T17:52:20.878Z,13.00
2023-04-21T17:54:47.848Z,12.90
2023-04-21T17:57:14.863Z,12.80
2023-04-21T17:59:42.322Z,12.70
2023-04-21T18:02:09.732Z,12.50
2023-04-21T18:04:43.231Z,12.50
2023-04-21T18:07:11.327Z,12.40
2023-04-21T18:09:38.651Z,12.20
2023-04-21T18:12:09.293Z,12.00
2023-04-21T18:14:38.076Z,11.90
2023-04-21T18:17:08.077Z,11.90
2023-04-21T18:19:34.965Z,12.00
2023-04-21T18:22:02.035Z,11.90
2023-04-21T18:24:31.385Z,11.90
2023-04-21T18:26:58.593Z,11.90
2023-04-21T18:29:28.461Z,11.90
2023-04-21T18:31:55.502Z,11.80
2023-04-21T18:34:25.425Z,11.80
2023-04-21T18:36:52.582Z,11.90
2023-04-21T18:39:28.798Z,11.80
2023-04-21T18:41:56.728Z,11.70
2023-04-21T18:44:23.844Z,11.80
2023-04-21T18:46:54.280Z,11.70
2023-04-21T18:49:21.814Z,11.60
2023-04-21T18:51:48.948Z,11.60
2023-04-21T18:54:16.283Z,11.60
2023-04-21T18:57:14.892Z,11.60
2023-04-21T18:59:54.304Z,11.60
2023-04-21T19:02:24.455Z,11.60
2023-04-21T19:04:52.050Z,11.60
2023-04-21T19:07:19.285Z,11.60
2023-04-21T19:09:46.200Z,11.60
2023-04-21T19:12:14.726Z,11.60
2023-04-21T19:14:47.235Z,11.60
2023-04-21T19:17:20.176Z,11.50
2023-04-21T19:19:47.745Z,11.50
2023-04-21T19:22:15.178Z,11.60
2023-04-21T19:24:42.984Z,11.60
2023-04-21T19:27:10.079Z,11.70
2023-04-21T19:29:42.285Z,11.70
2023-04-21T19:32:19.458Z,11.60
2023-04-21T19:34:49.656Z,11.70
2023-04-21T19:37:16.599Z,11.70
2023-04-21T19:39:46.496Z,11.60
2023-04-21T19:42:13.440Z,11.60
2023-04-21T19:44:40.740Z,11.50
2023-04-21T19:47:07.717Z,11.60
2023-04-21T19:49:34.817Z,11.60
2023-04-21T19:52:01.870Z,11.60
2023-04-21T19:54:28.874Z,11.70
2023-04-21T19:56:56.018Z,11.60
2023-04-21T19:59:22.959Z,11.60
2023-04-21T20:01:50.203Z,11.60
2023-04-21T20:04:17.597Z,11.70
2023-04-21T20:06:45.425Z,11.60
2023-04-21T20:09:12.286Z,11.70
2023-04-21T20:11:39.201Z,11.60
2023-04-21T20:14:06.378Z,11.60
2023-04-21T20:16:34.337Z,11.40
2023-04-21T20:19:01.314Z,11.50
2023-04-21T20:21:28.825Z,11.40
2023-04-21T20:23:58.446Z,11.40
2023-04-21T20:26:25.609Z,11.30
2023-04-21T20:28:52.622Z,11.20
2023-04-21T20:31:24.663Z,11.20
2023-04-21T20:33:51.614Z,11.20
2023-04-21T20:36:18.651Z,11.20
2023-04-21T20:38:49.625Z,11.10
2023-04-21T20:41:16.629Z,11.10
2023-04-21T20:43:44.099Z,11.10
2023-04-21T20:46:11.277Z,11.20
2023-04-21T20:48:41.950Z,11.00
2023-04-21T20:51:08.832Z,11.10
2023-04-21T20:53:35.893Z,11.10
2023-04-21T20:56:02.928Z,11.10
2023-04-21T20:58:29.987Z,11.10
2023-04-21T21:00:57.033Z,11.20
2023-04-21T21:03:24.081Z,11.20
2023-04-21T21:05:51.278Z,11.10
2023-04-21T21:08:18.290Z,11.10
2023-04-21T21:10:45.295Z,11.10
2023-04-21T21:13:12.262Z,11.10
2023-04-21T21:15:39.264Z,11.20
2023-04-21T21:18:06.447Z,11.20
2023-04-21T21:20:33.383Z,11.20
2023-04-21T21:23:00.262Z,11.10
2023-04-21T21:25:27.289Z,11.20
2023-04-21T21:27:54.218Z,11.10
2023-04-21T21:30:21.384Z,11.10
2023-04-21T21:32:49.608Z,11.10
2023-04-21T21:35:16.649Z,11.00
2023-04-21T21:37:43.547Z,10.90
2023-04-21T21:40:11.139Z,10.90
2023-04-21T21:42:39.248Z,10.80
2023-04-21T21:45:07.118Z,10.70
2023-04-21T21:47:37.319Z,10.70
2023-04-21T21:50:07.069Z,10.70
2023-04-21T21:52:34.083Z,10.70
2023-04-21T21:55:01.024Z,10.60
2023-04-21T21:57:27.946Z,10.60
2023-04-21T21:59:54.926Z,10.60
2023-04-21T22:02:21.877Z,10.50
2023-04-21T22:04:49.566Z,10.50
2023-04-21T22:07:16.563Z,10.50
2023-04-21T22:09:43.544Z,10.40
2023-04-21T22:12:10.476Z,10.40
2023-04-21T22:14:37.428Z,10.50
2023-04-21T22:17:04.409Z,10.40
2023-04-21T22:19:31.429Z,10.40
2023-04-21T22:21:58.444Z,10.40
2023-04-21T22:24:25.568Z,10.30
2023-04-21T22:26:52.560Z,10.30
2023-04-21T22:29:19.530Z,10.20
2023-04-21T22:31:46.844Z,10.20
2023-04-21T22:34:17.826Z,10.20
2023-04-21T22:36:44.660Z,10.10
2023-04-21T22:39:11.886Z,10.10
2023-04-21T22:41:39.160Z,10.10
2023-04-21T22:44:06.006Z,10.00
2023-04-21T22:46:33.790Z,10.10
2023-04-21T22:49:03.180Z,10.10
2023-04-21T22:51:32.285Z,10.10
2023-04-21T22:54:00.337Z,10.10
2023-04-21T22:56:27.741Z,10.20
2023-04-21T22:58:54.949Z,10.30
2023-04-21T23:01:21.946Z,10.30
2023-04-21T23:03:49.047Z,10.30
2023-04-21T23:06:15.885Z,10.30
2023-04-21T23:08:42.828Z,10.40
2023-04-21T23:11:09.742Z,10.30
2023-04-21T23:13:36.804Z,10.30
2023-04-21T23:16:03.713Z,10.20
2023-04-21T23:18:30.571Z,10.30
2023-04-21T23:20:58.612Z,10.30
2023-04-21T23:23:25.513Z,10.20
2023-04-21T23:25:52.368Z,10.10
2023-04-21T23:28:20.439Z,10.10
2023-04-21T23:30:47.649Z,10.10
2023-04-21T23:33:14.518Z,10.00
2023-04-21T23:35:41.483Z,10.00
2023-04-21T23:38:08.448Z,10.10
2023-04-21T23:40:35.385Z,10.10
2023-04-21T23:43:02.363Z,10.10
2023-04-21T23:45:29.218Z,10.10
2023-04-21T23:47:56.232Z,10.00
2023-04-21T23:50:23.453Z,10.00
2023-04-21T23:52:50.517Z,10.00
2023-04-21T23:55:17.551Z,10.00
2023-04-21T23:57:45.181Z,9.90
